Time;durP1;ratioP1;P1;durP2;ratioP2;P2;SDS_P1;SDS_P2;PMS_P1;PMS_P2;Temp;Humidity;BMP_temperature;BMP_pressure;BME280_temperature;BME280_humidity;BME280_pressure;Samples;Min_cycle;Max_cycle;Signal;HPM_P1;HPM_P2
2022/03/20 00:02:22;;;;;;;;;;;5.40;99.90;;;;;;5060634;28;19925;-82
2022/03/20 00:04:48;;;;;;;;;;;5.30;99.90;;;;;;5061995;28;20349;-82
2022/03/20 00:07:15;;;;;;;;;;;5.30;99.90;;;;;;5064917;28;19932;-81
2022/03/20 00:09:42;;;;;;;;;;;5.30;99.90;;;;;;5059839;28;19928;-82
2022/03/20 00:12:10;;;;;;;;;;;5.30;99.90;;;;;;5058396;28;19932;-82
2022/03/20 00:14:37;;;;;;;;;;;5.30;99.90;;;;;;5060198;28;20037;-82
2022/03/20 00:17:03;;;;;;;;;;;5.30;99.90;;;;;;5059757;28;20428;-82
2022/03/20 00:19:32;;;;;;;;;;;5.20;99.90;;;;;;5058911;28;19928;-82
2022/03/20 00:21:59;;;;;;;;;;;5.20;99.90;;;;;;5059377;28;20353;-81
2022/03/20 00:24:26;;;;;;;;;;;5.20;99.90;;;;;;5058957;28;19977;-81
2022/03/20 00:26:56;;;;;;;;;;;5.20;99.90;;;;;;5058865;28;19981;-82
2022/03/20 00:29:24;;;;;;;;;;;5.20;99.90;;;;;;5058387;28;19928;-82
2022/03/20 00:31:51;;;;;;;;;;;5.10;99.90;;;;;;5058501;28;19925;-82
2022/03/20 00:34:17;;;;;;;;;;;5.10;99.90;;;;;;5059004;28;19929;-82
2022/03/20 00:36:46;;;;;;;;;;;5.00;99.90;;;;;;5058540;28;19929;-82
2022/03/20 00:39:12;;;;;;;;;;;5.00;99.90;;;;;;5057947;28;19928;-81
2022/03/20 00:41:39;;;;;;;;;;;4.90;99.90;;;;;;5058508;28;19928;-82
2022/03/20 00:44:06;;;;;;;;;;;4.90;99.90;;;;;;5058952;28;19924;-81
2022/03/20 00:46:33;;;;;;;;;;;4.80;99.90;;;;;;5059095;28;19924;-81
2022/03/20 00:49:00;;;;;;;;;;;4.70;99.90;;;;;;5058220;28;19928;-82
2022/03/20 00:51:27;;;;;;;;;;;4.70;99.90;;;;;;5059062;28;19925;-81
2022/03/20 00:53:55;;;;;;;;;;;4.60;99.90;;;;;;5058556;28;19928;-82
2022/03/20 00:56:22;;;;;;;;;;;4.60;99.90;;;;;;5057885;28;19947;-82
2022/03/20 00:58:49;;;;;;;;;;;4.50;99.90;;;;;;5057939;28;19982;-81
2022/03/20 01:01:16;;;;;;;;;;;4.40;99.90;;;;;;5057755;28;20351;-82
2022/03/20 01:03:43;;;;;;;;;;;4.30;99.90;;;;;;5058495;28;19935;-82
2022/03/20 01:06:10;;;;;;;;;;;4.30;99.90;;;;;;5057904;28;20306;-82
2022/03/20 01:08:37;;;;;;;;;;;4.30;99.90;;;;;;5057293;28;19924;-80
2022/03/20 01:11:05;;;;;;;;;;;4.20;99.90;;;;;;5057161;28;19932;-80
2022/03/20 01:13:33;;;;;;;;;;;4.20;99.90;;;;;;5057729;28;19931;-81
2022/03/20 01:16:00;;;;;;;;;;;4.10;99.90;;;;;;5057364;28;19976;-82
2022/03/20 01:18:27;;;;;;;;;;;4.10;99.90;;;;;;5057357;28;19924;-81
2022/03/20 01:20:54;;;;;;;;;;;4.00;99.90;;;;;;5057724;28;19928;-82
2022/03/20 01:23:21;;;;;;;;;;;4.00;99.90;;;;;;5057624;28;19925;-81
2022/03/20 01:25:49;;;;;;;;;;;3.90;99.90;;;;;;5057945;28;20512;-81
2022/03/20 01:28:17;;;;;;;;;;;3.90;99.90;;;;;;5058410;28;19966;-81
2022/03/20 01:30:44;;;;;;;;;;;3.90;99.90;;;;;;5057102;28;19925;-82
2022/03/20 01:33:11;;;;;;;;;;;3.90;99.90;;;;;;5057395;28;19924;-82
2022/03/20 01:35:38;;;;;;;;;;;3.90;99.90;;;;;;5058048;28;19929;-82
2022/03/20 01:38:06;;;;;;;;;;;3.90;99.90;;;;;;5059894;28;19924;-81
2022/03/20 01:40:32;;;;;;;;;;;4.00;99.90;;;;;;5061796;28;19924;-82
2022/03/20 01:42:59;;;;;;;;;;;4.10;99.90;;;;;;5056249;28;19931;-81
2022/03/20 01:45:27;;;;;;;;;;;4.20;99.90;;;;;;5056736;28;19932;-81
2022/03/20 01:47:55;;;;;;;;;;;4.20;99.90;;;;;;5056256;28;19985;-81
2022/03/20 01:50:22;;;;;;;;;;;4.30;99.90;;;;;;5056182;28;19924;-82
2022/03/20 01:52:50;;;;;;;;;;;4.30;99.90;;;;;;5056344;28;19931;-81
2022/03/20 01:55:17;;;;;;;;;;;4.30;99.90;;;;;;5056200;28;19947;-82
2022/03/20 01:57:44;;;;;;;;;;;4.30;99.90;;;;;;5055848;28;19931;-82
2022/03/20 02:00:12;;;;;;;;;;;4.30;99.90;;;;;;5055405;28;19925;-82
2022/03/20 02:02:40;;;;;;;;;;;4.30;99.90;;;;;;5080055;28;19983;-82
2022/03/20 02:05:09;;;;;;;;;;;4.20;99.90;;;;;;5060320;28;19924;-81
2022/03/20 02:07:36;;;;;;;;;;;4.20;99.90;;;;;;5057477;28;20391;-82
2022/03/20 02:10:03;;;;;;;;;;;4.20;99.90;;;;;;5055515;28;19978;-81
2022/03/20 02:12:30;;;;;;;;;;;4.20;99.90;;;;;;5057197;28;19928;-82
2022/03/20 02:14:58;;;;;;;;;;;4.20;99.90;;;;;;5057548;28;19933;-82
2022/03/20 02:17:26;;;;;;;;;;;4.20;99.90;;;;;;5068212;28;19925;-82
2022/03/20 02:19:54;;;;;;;;;;;4.20;99.90;;;;;;5077190;28;19928;-82
2022/03/20 02:22:24;;;;;;;;;;;4.20;99.90;;;;;;5077627;28;19928;-82
2022/03/20 02:24:51;;;;;;;;;;;4.30;99.90;;;;;;5076857;28;19985;-82
2022/03/20 02:27:19;;;;;;;;;;;4.30;99.90;;;;;;5077220;28;19981;-82
2022/03/20 02:29:49;;;;;;;;;;;4.30;99.90;;;;;;5076641;28;20288;-82
2022/03/20 02:32:18;;;;;;;;;;;4.30;99.90;;;;;;5077218;28;19947;-81
2022/03/20 02:34:47;;;;;;;;;;;4.30;99.90;;;;;;5076493;28;19946;-82
2022/03/20 02:37:14;;;;;;;;;;;4.30;99.90;;;;;;5076386;28;19947;-82
2022/03/20 02:39:43;;;;;;;;;;;4.30;99.90;;;;;;5076419;28;19924;-82
2022/03/20 02:42:13;;;;;;;;;;;4.30;99.90;;;;;;5077068;28;20288;-81
2022/03/20 02:44:50;;;;;;;;;;;4.30;99.90;;;;;;5077364;28;19924;-81
2022/03/20 02:47:19;;;;;;;;;;;4.30;99.90;;;;;;5077934;28;19932;-82
2022/03/20 02:49:47;;;;;;;;;;;4.30;99.90;;;;;;5076854;28;19985;-81
2022/03/20 02:52:14;;;;;;;;;;;4.30;99.90;;;;;;5076522;28;19954;-82
2022/03/20 02:54:42;;;;;;;;;;;4.30;99.90;;;;;;5077124;28;19977;-82
2022/03/20 02:57:10;;;;;;;;;;;4.40;99.90;;;;;;5076926;28;20399;-82
2022/03/20 02:59:37;;;;;;;;;;;4.30;99.90;;;;;;5076523;28;19931;-81
2022/03/20 03:02:04;;;;;;;;;;;4.30;99.90;;;;;;5076903;28;20345;-81
2022/03/20 03:04:31;;;;;;;;;;;4.20;99.90;;;;;;5077331;28;19924;-81
2022/03/20 03:07:01;;;;;;;;;;;4.20;99.90;;;;;;5077021;28;19977;-81
2022/03/20 03:12:14;;;;;;;;;;;4.10;99.90;;;;;;5080064;28;19920;-81
2022/03/20 03:17:28;;;;;;;;;;;3.90;99.90;;;;;;5076683;28;19924;-81
2022/03/20 03:19:56;;;;;;;;;;;3.90;99.90;;;;;;5076124;28;19931;-81
2022/03/20 03:22:23;;;;;;;;;;;3.90;99.90;;;;;;5076113;28;20387;-81
2022/03/20 03:24:50;;;;;;;;;;;3.80;99.90;;;;;;5076140;28;19924;-80
2022/03/20 03:27:18;;;;;;;;;;;3.80;99.90;;;;;;5076767;28;19924;-81
2022/03/20 03:29:45;;;;;;;;;;;3.70;99.90;;;;;;5076032;28;20333;-80
2022/03/20 03:32:12;;;;;;;;;;;3.70;99.90;;;;;;5098780;22;19932;-78
2022/03/20 03:37:23;;;;;;;;;;;3.70;99.90;;;;;;5037424;28;20384;-78
2022/03/20 03:39:50;;;;;;;;;;;3.70;99.90;;;;;;5037307;28;19953;-78
2022/03/20 03:42:18;;;;;;;;;;;3.60;99.90;;;;;;5038449;28;19925;-79
2022/03/20 03:44:44;;;;;;;;;;;3.60;99.90;;;;;;5033612;28;19971;-76
2022/03/20 03:47:11;;;;;;;;;;;3.60;99.90;;;;;;5032918;28;19925;-77
2022/03/20 03:49:39;;;;;;;;;;;3.60;99.90;;;;;;5033007;28;19925;-77
2022/03/20 03:52:07;;;;;;;;;;;3.60;99.90;;;;;;5033324;28;19929;-77
2022/03/20 03:54:33;;;;;;;;;;;3.60;99.90;;;;;;5033143;28;19925;-77
2022/03/20 03:57:00;;;;;;;;;;;3.60;99.90;;;;;;5033392;28;19951;-77
2022/03/20 03:59:28;;;;;;;;;;;3.60;99.90;;;;;;5033015;28;19929;-77
2022/03/20 04:01:55;;;;;;;;;;;3.50;99.90;;;;;;5033105;28;19929;-77
2022/03/20 04:04:22;;;;;;;;;;;3.50;99.90;;;;;;5033034;28;19975;-77
2022/03/20 04:06:48;;;;;;;;;;;3.50;99.90;;;;;;5033356;28;19971;-77
2022/03/20 04:09:15;;;;;;;;;;;3.50;99.90;;;;;;5032744;28;20404;-77
2022/03/20 04:11:42;;;;;;;;;;;3.50;99.90;;;;;;5033228;28;19995;-77
2022/03/20 04:14:09;;;;;;;;;;;3.40;99.90;;;;;;5033096;28;19925;-77
2022/03/20 04:16:37;;;;;;;;;;;3.40;99.90;;;;;;5032763;28;19925;-76
2022/03/20 04:19:04;;;;;;;;;;;3.40;99.90;;;;;;5032455;28;20428;-77
2022/03/20 04:21:31;;;;;;;;;;;3.40;99.90;;;;;;5032865;28;19979;-77
2022/03/20 04:23:59;;;;;;;;;;;3.40;99.90;;;;;;5032748;28;20454;-77
2022/03/20 04:26:25;;;;;;;;;;;3.40;99.90;;;;;;5032592;28;20391;-78
2022/03/20 04:28:52;;;;;;;;;;;3.40;99.90;;;;;;5032114;28;20352;-77
2022/03/20 04:31:20;;;;;;;;;;;3.40;99.90;;;;;;5032456;28;19929;-77
2022/03/20 04:33:50;;;;;;;;;;;3.30;99.90;;;;;;5032639;28;19925;-77
2022/03/20 04:36:17;;;;;;;;;;;3.30;99.90;;;;;;5032404;28;19925;-78
2022/03/20 04:38:44;;;;;;;;;;;3.30;99.90;;;;;;5031960;28;19979;-76
2022/03/20 04:41:11;;;;;;;;;;;3.30;99.90;;;;;;5032272;28;20019;-76
2022/03/20 04:43:37;;;;;;;;;;;3.30;99.90;;;;;;5032612;28;19925;-77
2022/03/20 04:46:04;;;;;;;;;;;3.30;99.90;;;;;;5032394;28;19925;-77
2022/03/20 04:59:38;;;;;;;;;;;3.30;99.90;;;;;;5031792;28;19959;-77
2022/03/20 05:02:05;;;;;;;;;;;3.30;99.90;;;;;;5032092;28;19929;-77
2022/03/20 05:04:32;;;;;;;;;;;3.40;99.90;;;;;;5031910;28;20355;-78
2022/03/20 05:07:00;;;;;;;;;;;3.40;99.90;;;;;;5032116;28;19925;-78
2022/03/20 05:14:57;;;;;;;;;;;3.60;99.90;;;;;;5032212;28;19925;-77
2022/03/20 05:17:23;;;;;;;;;;;3.70;99.90;;;;;;5034106;28;19933;-77
2022/03/20 05:19:50;;;;;;;;;;;3.80;99.90;;;;;;5032548;28;20353;-77
2022/03/20 05:22:18;;;;;;;;;;;3.90;99.90;;;;;;5032940;28;19925;-77
2022/03/20 05:24:45;;;;;;;;;;;3.90;99.90;;;;;;5033954;28;19925;-77
2022/03/20 05:27:12;;;;;;;;;;;4.00;99.90;;;;;;5033904;28;19948;-77
2022/03/20 05:29:40;;;;;;;;;;;4.10;99.90;;;;;;5032980;28;19925;-77
2022/03/20 05:32:08;;;;;;;;;;;4.20;99.90;;;;;;5033494;28;19926;-78
2022/03/20 05:34:35;;;;;;;;;;;4.30;99.90;;;;;;5034018;28;19929;-77
2022/03/20 05:37:02;;;;;;;;;;;4.30;99.90;;;;;;5033419;28;19979;-77
2022/03/20 05:39:31;;;;;;;;;;;4.50;99.90;;;;;;5032589;28;19929;-77
2022/03/20 05:41:58;;;;;;;;;;;4.50;99.90;;;;;;5033256;28;19960;-77
2022/03/20 05:44:28;;;;;;;;;;;4.60;99.90;;;;;;5032943;28;20377;-77
2022/03/20 05:46:57;;;;;;;;;;;4.60;99.90;;;;;;5032397;28;19929;-78
2022/03/20 05:49:24;;;;;;;;;;;4.60;99.90;;;;;;5032006;28;20397;-77
2022/03/20 05:51:51;;;;;;;;;;;4.70;99.90;;;;;;5032801;28;19925;-78
2022/03/20 05:54:18;;;;;;;;;;;4.70;99.90;;;;;;5033062;28;20019;-77
2022/03/20 05:59:30;;;;;;;;;;;4.70;99.90;;;;;;5032064;28;20277;-76
2022/03/20 06:01:57;;;;;;;;;;;4.70;99.90;;;;;;5022278;28;19941;-77
2022/03/20 06:04:24;;;;;;;;;;;4.70;99.90;;;;;;5028976;28;19933;-77
2022/03/20 06:06:51;;;;;;;;;;;4.70;99.90;;;;;;5007900;28;19980;-77
2022/03/20 06:09:17;;;;;;;;;;;4.70;99.90;;;;;;4993469;28;19936;-77
2022/03/20 06:11:44;;;;;;;;;;;4.80;99.90;;;;;;5003939;28;19975;-77
2022/03/20 06:14:12;;;;;;;;;;;4.80;99.90;;;;;;5013150;28;19926;-77
2022/03/20 06:16:39;;;;;;;;;;;4.80;99.90;;;;;;5013618;28;19930;-77
2022/03/20 06:19:07;;;;;;;;;;;4.80;99.90;;;;;;5012273;28;19932;-77
2022/03/20 06:21:34;;;;;;;;;;;4.90;99.90;;;;;;4994332;28;19926;-78
2022/03/20 06:24:01;;;;;;;;;;;4.90;99.90;;;;;;4994976;28;19926;-77
2022/03/20 06:26:27;;;;;;;;;;;4.90;99.90;;;;;;4993070;28;19961;-77
2022/03/20 06:28:54;;;;;;;;;;;4.90;99.90;;;;;;4992049;28;19961;-77
2022/03/20 06:31:23;;;;;;;;;;;4.80;99.90;;;;;;4992946;28;19926;-77
2022/03/20 06:33:49;;;;;;;;;;;4.80;99.90;;;;;;4992545;28;19972;-77
2022/03/20 06:36:16;;;;;;;;;;;4.80;99.90;;;;;;4994980;28;20105;-77
2022/03/20 06:38:43;;;;;;;;;;;4.80;99.90;;;;;;5012717;28;19933;-77
2022/03/20 06:41:13;;;;;;;;;;;4.80;99.90;;;;;;5029399;28;20028;-77
2022/03/20 06:43:40;;;;;;;;;;;4.80;99.90;;;;;;5010560;28;19933;-77
2022/03/20 06:46:08;;;;;;;;;;;4.80;99.90;;;;;;5010812;28;19926;-77
2022/03/20 06:48:36;;;;;;;;;;;4.80;99.90;;;;;;5010443;28;20455;-77
2022/03/20 06:51:04;;;;;;;;;;;4.80;99.90;;;;;;5010421;28;19972;-77
2022/03/20 06:53:33;;;;;;;;;;;4.90;99.90;;;;;;5011485;28;19932;-77
2022/03/20 06:56:01;;;;;;;;;;;5.00;99.90;;;;;;5013264;28;19926;-77
2022/03/20 06:58:28;;;;;;;;;;;5.10;99.90;;;;;;5012929;28;20032;-77
2022/03/20 07:00:54;;;;;;;;;;;5.20;99.90;;;;;;5011951;28;19926;-77
2022/03/20 07:03:21;;;;;;;;;;;5.20;99.90;;;;;;5012186;28;19929;-77
2022/03/20 07:05:50;;;;;;;;;;;5.30;99.90;;;;;;5013153;28;19932;-77
2022/03/20 07:08:16;;;;;;;;;;;5.30;99.90;;;;;;5013354;28;19929;-77
2022/03/20 07:10:43;;;;;;;;;;;5.30;99.90;;;;;;5007495;28;19961;-77
2022/03/20 07:15:57;;;;;;;;;;;5.30;99.90;;;;;;4994168;28;19949;-77
2022/03/20 07:18:25;;;;;;;;;;;5.40;99.90;;;;;;4993642;28;19930;-77
2022/03/20 07:20:55;;;;;;;;;;;5.40;99.90;;;;;;4993026;28;19925;-77
2022/03/20 07:23:22;;;;;;;;;;;5.40;99.90;;;;;;4997204;28;19926;-77
2022/03/20 07:31:20;;;;;;;;;;;5.30;99.90;;;;;;4996733;28;19922;-77
2022/03/20 07:33:48;;;;;;;;;;;5.40;99.90;;;;;;4996706;28;20309;-77
2022/03/20 07:36:16;;;;;;;;;;;5.40;99.90;;;;;;4997008;28;19934;-77
2022/03/20 07:38:44;;;;;;;;;;;5.50;99.90;;;;;;4996569;28;19925;-77
2022/03/20 07:41:10;;;;;;;;;;;5.50;99.90;;;;;;4996312;28;19972;-77
2022/03/20 07:43:37;;;;;;;;;;;5.60;99.90;;;;;;4996435;28;19933;-77
2022/03/20 07:46:06;;;;;;;;;;;5.70;99.90;;;;;;4996435;28;19926;-77
2022/03/20 07:48:34;;;;;;;;;;;5.80;99.90;;;;;;4996863;28;19925;-77
2022/03/20 07:51:01;;;;;;;;;;;5.90;99.90;;;;;;4996196;28;19958;-77
2022/03/20 07:53:29;;;;;;;;;;;5.90;99.90;;;;;;4996525;28;19981;-78
2022/03/20 07:55:56;;;;;;;;;;;6.00;99.90;;;;;;4995913;28;19933;-78
2022/03/20 07:58:23;;;;;;;;;;;6.00;99.90;;;;;;4996224;28;20389;-78
2022/03/20 08:00:50;;;;;;;;;;;6.10;99.90;;;;;;4995812;28;19925;-77
2022/03/20 08:03:17;;;;;;;;;;;6.30;99.90;;;;;;4995698;28;19980;-78
2022/03/20 08:05:44;;;;;;;;;;;6.40;99.90;;;;;;4996581;28;19925;-77
2022/03/20 08:08:14;;;;;;;;;;;6.60;99.90;;;;;;4995801;28;20393;-78
2022/03/20 08:10:42;;;;;;;;;;;6.70;99.90;;;;;;4999439;28;19925;-78
2022/03/20 08:13:10;;;;;;;;;;;6.80;99.90;;;;;;5015731;28;20360;-78
2022/03/20 08:15:36;;;;;;;;;;;6.90;99.90;;;;;;5015064;28;19929;-77
2022/03/20 08:18:04;;;;;;;;;;;6.70;99.90;;;;;;5007325;28;19926;-78
2022/03/20 08:20:31;;;;;;;;;;;6.60;99.90;;;;;;5013480;28;20025;-78
2022/03/20 08:23:01;;;;;;;;;;;6.50;99.90;;;;;;5014908;28;19926;-77
2022/03/20 08:25:28;;;;;;;;;;;6.40;99.90;;;;;;5015328;28;19972;-77
2022/03/20 08:27:56;;;;;;;;;;;6.40;99.90;;;;;;5014985;28;20446;-77
2022/03/20 08:30:23;;;;;;;;;;;6.30;99.90;;;;;;5013594;28;19925;-77
2022/03/20 08:32:52;;;;;;;;;;;6.30;99.90;;;;;;5013800;28;19926;-77
2022/03/20 08:35:19;;;;;;;;;;;6.40;99.90;;;;;;5014144;28;19971;-77
2022/03/20 08:37:46;;;;;;;;;;;6.40;99.90;;;;;;5014946;28;19925;-77
2022/03/20 08:40:15;;;;;;;;;;;6.50;99.90;;;;;;5014321;28;19929;-77
2022/03/20 08:42:43;;;;;;;;;;;6.60;99.90;;;;;;5014862;28;19927;-77
2022/03/20 08:45:12;;;;;;;;;;;6.70;99.90;;;;;;5015727;28;19948;-77
2022/03/20 08:47:39;;;;;;;;;;;6.70;99.90;;;;;;5014947;28;19960;-77
2022/03/20 08:50:06;;;;;;;;;;;6.80;99.90;;;;;;5014255;28;19945;-77
2022/03/20 08:52:33;;;;;;;;;;;6.80;99.90;;;;;;5014967;28;19933;-79
2022/03/20 08:55:00;;;;;;;;;;;6.80;99.90;;;;;;5014676;28;19925;-78
2022/03/20 08:57:31;;;;;;;;;;;6.80;99.90;;;;;;5014396;28;19944;-77
2022/03/20 08:59:58;;;;;;;;;;;6.90;99.90;;;;;;5013958;28;19976;-77
2022/03/20 09:02:26;;;;;;;;;;;6.90;99.90;;;;;;5014628;28;19926;-77
2022/03/20 09:04:53;;;;;;;;;;;6.90;99.90;;;;;;5014814;28;19925;-77
2022/03/20 09:07:19;;;;;;;;;;;6.90;99.90;;;;;;5015348;28;19925;-77
2022/03/20 09:09:46;;;;;;;;;;;6.80;99.90;;;;;;5013623;28;19926;-77
2022/03/20 09:12:13;;;;;;;;;;;6.80;99.90;;;;;;4997797;28;19926;-78
2022/03/20 09:14:40;;;;;;;;;;;6.80;99.90;;;;;;4994617;28;19980;-78
2022/03/20 09:19:55;;;;;;;;;;;6.80;99.90;;;;;;4993879;28;19926;-78
2022/03/20 09:22:22;;;;;;;;;;;6.80;99.90;;;;;;4994050;28;19965;-78
2022/03/20 09:24:48;;;;;;;;;;;6.90;99.90;;;;;;4993905;28;19933;-78
2022/03/20 09:27:15;;;;;;;;;;;6.90;99.90;;;;;;4993973;28;19925;-78
2022/03/20 09:29:42;;;;;;;;;;;6.90;99.90;;;;;;4993333;28;19930;-77
2022/03/20 09:32:09;;;;;;;;;;;7.00;99.90;;;;;;4992336;28;19937;-77
2022/03/20 09:34:36;;;;;;;;;;;7.10;99.90;;;;;;4992772;28;20309;-77
2022/03/20 09:37:06;;;;;;;;;;;7.20;99.90;;;;;;4992859;28;19930;-77
2022/03/20 09:39:32;;;;;;;;;;;7.30;99.90;;;;;;4995094;28;19936;-77
2022/03/20 09:42:00;;;;;;;;;;;7.40;99.90;;;;;;4992816;28;19932;-77
2022/03/20 09:44:26;;;;;;;;;;;7.50;99.90;;;;;;4993546;28;19926;-77
2022/03/20 09:46:53;;;;;;;;;;;7.60;99.90;;;;;;4994340;28;19955;-78
2022/03/20 09:49:25;;;;;;;;;;;7.70;99.90;;;;;;4994176;28;19925;-77
2022/03/20 09:51:52;;;;;;;;;;;8.00;99.90;;;;;;4994229;28;19926;-77
2022/03/20 09:54:20;;;;;;;;;;;8.20;99.90;;;;;;4994789;28;19930;-77
2022/03/20 09:56:50;;;;;;;;;;;8.60;99.90;;;;;;4994879;28;19989;-77
2022/03/20 09:59:17;;;;;;;;;;;8.80;99.90;;;;;;4993496;28;19925;-76
2022/03/20 10:01:43;;;;;;;;;;;8.80;99.90;;;;;;4994211;28;19925;-77
2022/03/20 10:04:11;;;;;;;;;;;8.90;99.90;;;;;;4994628;28;20333;-77
2022/03/20 10:06:39;;;;;;;;;;;9.10;99.90;;;;;;4994115;28;19926;-77
2022/03/20 10:09:07;;;;;;;;;;;9.30;99.90;;;;;;4993732;28;20344;-77
2022/03/20 10:11:36;;;;;;;;;;;9.50;99.90;;;;;;5005626;28;19926;-77
2022/03/20 10:14:10;;;;;;;;;;;9.70;99.90;;;;;;5014164;28;19925;-77
2022/03/20 10:16:38;;;;;;;;;;;9.80;99.90;;;;;;5014485;28;19985;-77
2022/03/20 10:19:20;;;;;;;;;;;10.00;99.90;;;;;;5013560;28;19934;-77
2022/03/20 10:21:47;;;;;;;;;;;10.20;99.90;;;;;;5014399;28;19925;-78
2022/03/20 10:24:16;;;;;;;;;;;10.40;99.90;;;;;;5013772;28;19926;-78
2022/03/20 10:26:44;;;;;;;;;;;10.60;99.90;;;;;;5014327;28;19926;-78
2022/03/20 10:29:15;;;;;;;;;;;10.70;99.90;;;;;;5013843;28;19925;-78
2022/03/20 10:31:48;;;;;;;;;;;10.60;99.90;;;;;;5014586;28;19932;-78
2022/03/20 10:34:15;;;;;;;;;;;10.70;99.90;;;;;;5013791;28;19990;-77
2022/03/20 10:36:43;;;;;;;;;;;10.60;99.90;;;;;;5013366;28;19929;-77
2022/03/20 10:39:11;;;;;;;;;;;10.30;99.90;;;;;;5013460;28;19926;-77
2022/03/20 10:41:39;;;;;;;;;;;10.30;99.90;;;;;;5014382;28;19980;-77
2022/03/20 10:44:14;;;;;;;;;;;10.20;99.90;;;;;;5014134;28;19944;-77
2022/03/20 10:46:42;;;;;;;;;;;10.30;99.90;;;;;;5014478;28;19925;-77
2022/03/20 10:49:20;;;;;;;;;;;10.10;99.90;;;;;;5011508;28;19925;-76
2022/03/20 10:52:00;;;;;;;;;;;10.10;99.90;;;;;;5010621;28;19925;-77
2022/03/20 10:54:38;;;;;;;;;;;10.10;99.90;;;;;;5010841;28;19925;-77
2022/03/20 10:57:06;;;;;;;;;;;10.10;99.90;;;;;;5010104;28;20359;-77
2022/03/20 10:59:37;;;;;;;;;;;10.00;99.90;;;;;;5009892;28;19925;-77
2022/03/20 11:02:05;;;;;;;;;;;9.90;99.90;;;;;;5010543;28;19925;-77
2022/03/20 11:04:32;;;;;;;;;;;9.80;99.90;;;;;;5010279;28;19933;-77
2022/03/20 11:07:03;;;;;;;;;;;9.80;99.90;;;;;;5010695;28;20401;-77
2022/03/20 11:09:33;;;;;;;;;;;9.80;99.90;;;;;;5010357;28;19926;-78
2022/03/20 11:12:00;;;;;;;;;;;9.80;99.90;;;;;;5010388;28;19933;-77
2022/03/20 11:14:28;;;;;;;;;;;9.90;99.90;;;;;;5010483;28;19991;-77
2022/03/20 11:16:57;;;;;;;;;;;9.90;99.90;;;;;;5010391;28;19925;-77
2022/03/20 11:19:25;;;;;;;;;;;9.90;99.90;;;;;;5009709;28;19925;-77
2022/03/20 11:21:54;;;;;;;;;;;9.90;99.90;;;;;;5010045;28;19925;-77
2022/03/20 11:24:22;;;;;;;;;;;9.90;99.90;;;;;;5009815;28;19932;-77
2022/03/20 11:26:50;;;;;;;;;;;9.90;99.90;;;;;;5010349;28;19995;-77
2022/03/20 11:29:19;;;;;;;;;;;9.90;99.90;;;;;;5009720;28;20293;-77
2022/03/20 11:31:46;;;;;;;;;;;9.90;99.90;;;;;;5009957;28;20278;-77
2022/03/20 11:34:17;;;;;;;;;;;9.90;99.90;;;;;;5010182;28;19991;-77
2022/03/20 11:37:02;;;;;;;;;;;9.90;99.90;;;;;;5010302;28;20381;-77
2022/03/20 11:39:29;;;;;;;;;;;9.90;99.90;;;;;;5025901;28;19940;-77
2022/03/20 11:42:11;;;;;;;;;;;9.90;99.90;;;;;;5010172;28;19925;-77
2022/03/20 11:44:50;;;;;;;;;;;9.80;99.90;;;;;;5009264;28;19925;-77
2022/03/20 11:47:22;;;;;;;;;;;9.80;99.90;;;;;;5010072;28;19933;-77
2022/03/20 11:50:12;;;;;;;;;;;9.70;99.90;;;;;;5009583;28;20389;-77
2022/03/20 11:52:44;;;;;;;;;;;9.70;99.90;;;;;;5010773;28;19964;-77
2022/03/20 11:55:24;;;;;;;;;;;9.80;99.90;;;;;;5010381;28;19925;-77
2022/03/20 11:57:52;;;;;;;;;;;9.80;99.90;;;;;;5013001;28;19933;-77
2022/03/20 12:00:22;;;;;;;;;;;9.80;99.90;;;;;;5030948;28;19925;-78
2022/03/20 12:02:54;;;;;;;;;;;9.70;99.90;;;;;;5014325;28;20393;-77
2022/03/20 12:05:39;;;;;;;;;;;9.50;99.90;;;;;;5015206;28;19983;-77
2022/03/20 12:08:13;;;;;;;;;;;9.40;99.90;;;;;;5017593;28;19949;-77
2022/03/20 12:10:46;;;;;;;;;;;9.30;99.90;;;;;;5013050;28;19933;-77
2022/03/20 12:13:22;;;;;;;;;;;9.00;99.90;;;;;;4997168;28;19926;-77
2022/03/20 12:15:49;;;;;;;;;;;8.80;99.90;;;;;;4999567;28;20004;-77
2022/03/20 12:18:16;;;;;;;;;;;8.70;99.90;;;;;;4999195;28;19926;-77
2022/03/20 12:20:59;;;;;;;;;;;8.70;99.90;;;;;;4999187;28;19933;-77
2022/03/20 12:23:38;;;;;;;;;;;8.70;99.90;;;;;;4996914;28;19932;-77
2022/03/20 12:26:23;;;;;;;;;;;8.70;99.90;;;;;;4996811;28;19930;-77
2022/03/20 12:28:50;;;;;;;;;;;8.60;99.90;;;;;;4997249;28;20317;-77
2022/03/20 12:31:25;;;;;;;;;;;8.60;99.90;;;;;;4997135;28;19926;-77
2022/03/20 12:34:07;;;;;;;;;;;8.60;99.90;;;;;;4996884;28;19925;-77
2022/03/20 12:36:35;;;;;;;;;;;8.60;99.90;;;;;;4995481;28;19930;-77
2022/03/20 12:39:02;;;;;;;;;;;8.50;99.90;;;;;;4996301;28;19933;-77
2022/03/20 12:41:29;;;;;;;;;;;8.60;99.90;;;;;;4996601;28;20430;-78
2022/03/20 12:43:57;;;;;;;;;;;8.60;99.90;;;;;;4996481;28;19930;-77
2022/03/20 12:46:24;;;;;;;;;;;8.60;99.90;;;;;;4996945;28;19932;-77
2022/03/20 12:48:52;;;;;;;;;;;8.60;99.90;;;;;;4995745;28;19925;-77
2022/03/20 12:51:25;;;;;;;;;;;8.60;99.90;;;;;;4996692;28;19930;-77
2022/03/20 12:53:54;;;;;;;;;;;8.60;99.90;;;;;;4996974;28;19929;-77
2022/03/20 12:56:27;;;;;;;;;;;8.60;99.90;;;;;;4996383;28;20350;-77
2022/03/20 12:58:54;;;;;;;;;;;8.70;99.90;;;;;;4995373;28;19968;-78
2022/03/20 13:01:21;;;;;;;;;;;8.70;99.90;;;;;;4995927;28;19926;-78
2022/03/20 13:03:48;;;;;;;;;;;8.70;99.90;;;;;;4996504;28;20032;-77
2022/03/20 13:06:16;;;;;;;;;;;8.80;99.90;;;;;;4995893;28;19927;-78
2022/03/20 13:08:45;;;;;;;;;;;8.80;99.90;;;;;;4996083;28;20476;-77
2022/03/20 13:14:00;;;;;;;;;;;8.80;99.90;;;;;;5014508;28;20356;-78
2022/03/20 13:16:27;;;;;;;;;;;8.80;99.90;;;;;;5015936;28;20400;-77
2022/03/20 13:18:54;;;;;;;;;;;8.80;99.90;;;;;;5015003;28;19949;-78
2022/03/20 13:21:20;;;;;;;;;;;8.90;99.90;;;;;;5016112;28;19925;-77
2022/03/20 13:23:48;;;;;;;;;;;9.00;99.90;;;;;;5015731;28;19930;-77
2022/03/20 13:26:18;;;;;;;;;;;9.00;99.90;;;;;;5016032;28;20024;-77
2022/03/20 13:28:45;;;;;;;;;;;9.00;99.90;;;;;;5015893;28;19929;-77
2022/03/20 13:31:13;;;;;;;;;;;9.00;99.90;;;;;;5016557;28;20007;-78
2022/03/20 13:33:44;;;;;;;;;;;9.10;99.90;;;;;;5015446;28;20298;-77
2022/03/20 13:36:12;;;;;;;;;;;9.10;99.90;;;;;;5016411;28;19926;-79
2022/03/20 13:38:41;;;;;;;;;;;9.10;99.90;;;;;;5016107;28;19948;-78
2022/03/20 13:41:10;;;;;;;;;;;9.20;99.90;;;;;;5015396;28;19925;-78
2022/03/20 13:43:38;;;;;;;;;;;9.30;99.90;;;;;;5015781;28;19933;-77
2022/03/20 13:46:17;;;;;;;;;;;9.50;99.90;;;;;;5016241;28;19926;-78
2022/03/20 13:48:44;;;;;;;;;;;9.60;99.90;;;;;;5015325;28;19929;-77
2022/03/20 13:51:12;;;;;;;;;;;9.70;99.90;;;;;;5016185;28;19925;-77
2022/03/20 13:53:40;;;;;;;;;;;9.90;99.90;;;;;;5014694;28;19936;-78
2022/03/20 13:56:21;;;;;;;;;;;10.00;99.90;;;;;;5015066;28;20389;-77
2022/03/20 13:59:03;;;;;;;;;;;10.20;99.90;;;;;;5014768;28;19929;-77
2022/03/20 14:01:30;;;;;;;;;;;10.30;99.90;;;;;;5014935;28;19929;-77
2022/03/20 14:04:08;;;;;;;;;;;10.20;99.90;;;;;;5031289;28;19926;-77
2022/03/20 14:06:39;;;;;;;;;;;10.10;99.90;;;;;;5015246;28;19925;-78
2022/03/20 14:09:07;;;;;;;;;;;10.10;99.90;;;;;;5014499;28;20309;-78
2022/03/20 14:11:35;;;;;;;;;;;10.50;99.90;;;;;;5004221;28;19926;-76
2022/03/20 14:14:05;;;;;;;;;;;10.90;99.90;;;;;;4995516;28;19937;-78
2022/03/20 14:16:32;;;;;;;;;;;11.00;99.90;;;;;;4995146;28;20398;-78
2022/03/20 14:19:04;;;;;;;;;;;10.80;99.90;;;;;;5002619;28;19930;-77
2022/03/20 14:21:31;;;;;;;;;;;10.70;99.90;;;;;;4996481;28;19949;-78
2022/03/20 14:24:01;;;;;;;;;;;10.70;99.90;;;;;;4996071;28;19926;-77
2022/03/20 14:26:29;;;;;;;;;;;11.00;99.90;;;;;;4995712;28;19925;-78
2022/03/20 14:29:05;;;;;;;;;;;11.20;99.90;;;;;;4995182;28;19929;-77
2022/03/20 14:39:46;;;;;;;;;;;13.30;99.90;;;;;;4995601;28;19926;-78
2022/03/20 14:42:26;;;;;;;;;;;13.40;99.90;;;;;;4997880;28;19951;-78
2022/03/20 14:44:54;;;;;;;;;;;13.50;99.90;;;;;;4996856;28;19929;-78
2022/03/20 14:47:21;;;;;;;;;;;13.30;99.90;;;;;;4997035;28;19930;-78
2022/03/20 14:49:50;;;;;;;;;;;13.10;99.90;;;;;;4997796;28;19980;-78
2022/03/20 14:52:19;;;;;;;;;;;12.90;99.90;;;;;;4996305;28;19932;-78
2022/03/20 14:54:46;;;;;;;;;;;12.70;99.90;;;;;;4995589;28;19926;-78
2022/03/20 14:57:13;;;;;;;;;;;12.40;99.90;;;;;;4995977;28;19926;-78
2022/03/20 14:59:40;;;;;;;;;;;12.20;99.90;;;;;;4995981;28;19925;-78
2022/03/20 15:02:10;;;;;;;;;;;12.00;99.90;;;;;;4996051;28;20405;-78
2022/03/20 15:04:39;;;;;;;;;;;11.80;99.90;;;;;;4996242;28;19926;-78
2022/03/20 15:07:05;;;;;;;;;;;11.80;99.90;;;;;;4996566;28;20386;-78
2022/03/20 15:12:17;;;;;;;;;;;12.10;99.90;;;;;;5012811;28;19922;-77
2022/03/20 15:14:44;;;;;;;;;;;12.50;99.90;;;;;;5015528;28;20400;-78
2022/03/20 15:17:14;;;;;;;;;;;12.50;99.90;;;;;;5015823;28;20020;-78
2022/03/20 15:19:42;;;;;;;;;;;12.40;99.90;;;;;;5015608;28;19929;-78
2022/03/20 15:22:09;;;;;;;;;;;12.20;99.90;;;;;;5015467;28;20016;-78
2022/03/20 15:24:37;;;;;;;;;;;12.10;99.90;;;;;;5014955;28;19933;-78
2022/03/20 15:27:04;;;;;;;;;;;12.30;99.90;;;;;;5016486;28;19968;-78
2022/03/20 15:29:31;;;;;;;;;;;13.00;99.90;;;;;;5016350;28;19930;-79